sensor_id;sensor_type;location;lat;lon;timestamp;pressure;altitude;pressure_sealevel;temperature;humidity
53270;BME280;39159;45.634;9.420;2022-12-17T00:02:06;98237.13;;;3.70;100.00
53270;BME280;39159;45.634;9.420;2022-12-17T00:04:50;98229.34;;;3.64;100.00
53270;BME280;39159;45.634;9.420;2022-12-17T00:07:34;98229.34;;;3.64;100.00
53270;BME280;39159;45.634;9.420;2022-12-17T00:10:18;98242.84;;;3.64;100.00
53270;BME280;39159;45.634;9.420;2022-12-17T00:13:02;98239.94;;;3.60;100.00
53270;BME280;39159;45.634;9.420;2022-12-17T00:15:50;98239.41;;;3.58;100.00
53270;BME280;39159;45.634;9.420;2022-12-17T00:18:34;98237.75;;;3.57;100.00
53270;BME280;39159;45.634;9.420;2022-12-17T00:21:18;98245.06;;;3.57;100.00
53270;BME280;39159;45.634;9.420;2022-12-17T00:24:02;98244.53;;;3.55;100.00
53270;BME280;39159;45.634;9.420;2022-12-17T00:27:03;98248.81;;;3.56;100.00
53270;BME280;39159;45.634;9.420;2022-12-17T00:29:47;98261.25;;;3.57;100.00
53270;BME280;39159;45.634;9.420;2022-12-17T00:32:31;98260.44;;;3.56;100.00
53270;BME280;39159;45.634;9.420;2022-12-17T00:35:14;98252.63;;;3.55;100.00
53270;BME280;39159;45.634;9.420;2022-12-17T00:37:58;98264.22;;;3.55;100.00
53270;BME280;39159;45.634;9.420;2022-12-17T00:40:42;98259.38;;;3.52;100.00
53270;BME280;39159;45.634;9.420;2022-12-17T00:43:26;98266.38;;;3.53;100.00
53270;BME280;39159;45.634;9.420;2022-12-17T00:46:10;98266.94;;;3.50;100.00
53270;BME280;39159;45.634;9.420;2022-12-17T00:48:54;98274.25;;;3.49;100.00
53270;BME280;39159;45.634;9.420;2022-12-17T00:51:38;98270.72;;;3.49;100.00
53270;BME280;39159;45.634;9.420;2022-12-17T00:54:22;98269.13;;;3.48;100.00
53270;BME280;39159;45.634;9.420;2022-12-17T00:57:06;98275.63;;;3.47;100.00
53270;BME280;39159;45.634;9.420;2022-12-17T00:59:50;98278.63;;;3.40;100.00
53270;BME280;39159;45.634;9.420;2022-12-17T01:02:34;98284.81;;;3.36;100.00
53270;BME280;39159;45.634;9.420;2022-12-17T01:05:18;98291.56;;;3.33;100.00
53270;BME280;39159;45.634;9.420;2022-12-17T01:08:10;98293.19;;;3.29;100.00
53270;BME280;39159;45.634;9.420;2022-12-17T01:11:03;98293.50;;;3.27;100.00
53270;BME280;39159;45.634;9.420;2022-12-17T01:13:47;98291.88;;;3.26;100.00
53270;BME280;39159;45.634;9.420;2022-12-17T01:16:32;98297.56;;;3.25;100.00
53270;BME280;39159;45.634;9.420;2022-12-17T01:19:16;98302.94;;;3.20;100.00
53270;BME280;39159;45.634;9.420;2022-12-17T01:21:59;98298.94;;;3.12;100.00
53270;BME280;39159;45.634;9.420;2022-12-17T01:24:43;98305.66;;;3.15;100.00
53270;BME280;39159;45.634;9.420;2022-12-17T01:27:38;98304.38;;;3.07;100.00
53270;BME280;39159;45.634;9.420;2022-12-17T01:30:22;98311.13;;;2.94;100.00
53270;BME280;39159;45.634;9.420;2022-12-17T01:33:07;98310.63;;;2.87;100.00
53270;BME280;39159;45.634;9.420;2022-12-17T01:35:56;98309.53;;;2.83;100.00
53270;BME280;39159;45.634;9.420;2022-12-17T01:38:41;98314.66;;;2.79;100.00
53270;BME280;39159;45.634;9.420;2022-12-17T01:41:25;98323.00;;;2.78;100.00
53270;BME280;39159;45.634;9.420;2022-12-17T01:50:27;98337.03;;;2.59;100.00
53270;BME280;39159;45.634;9.420;2022-12-17T01:53:15;98328.44;;;2.47;100.00
53270;BME280;39159;45.634;9.420;2022-12-17T01:56:00;98338.41;;;2.46;100.00
53270;BME280;39159;45.634;9.420;2022-12-17T01:58:44;98335.44;;;2.43;100.00
53270;BME280;39159;45.634;9.420;2022-12-17T02:01:29;98342.44;;;2.39;100.00
53270;BME280;39159;45.634;9.420;2022-12-17T02:04:13;98344.59;;;2.37;100.00
53270;BME280;39159;45.634;9.420;2022-12-17T02:10:22;98344.88;;;2.30;100.00
53270;BME280;39159;45.634;9.420;2022-12-17T02:13:13;98352.13;;;2.19;100.00
53270;BME280;39159;45.634;9.420;2022-12-17T02:16:37;98360.47;;;2.18;100.00
53270;BME280;39159;45.634;9.420;2022-12-17T02:25:21;98362.34;;;2.07;100.00
53270;BME280;39159;45.634;9.420;2022-12-17T02:28:08;98359.91;;;2.05;100.00
53270;BME280;39159;45.634;9.420;2022-12-17T02:30:53;98362.31;;;2.02;100.00
53270;BME280;39159;45.634;9.420;2022-12-17T02:33:38;98364.19;;;1.91;100.00
53270;BME280;39159;45.634;9.420;2022-12-17T02:36:22;98366.06;;;1.91;100.00
53270;BME280;39159;45.634;9.420;2022-12-17T02:39:06;98366.06;;;1.91;100.00
53270;BME280;39159;45.634;9.420;2022-12-17T02:41:57;98358.78;;;1.91;100.00
53270;BME280;39159;45.634;9.420;2022-12-17T02:44:42;98363.38;;;1.85;100.00
53270;BME280;39159;45.634;9.420;2022-12-17T02:47:27;98367.66;;;1.86;100.00
53270;BME280;39159;45.634;9.420;2022-12-17T02:50:11;98367.91;;;1.80;100.00
53270;BME280;39159;45.634;9.420;2022-12-17T02:52:58;98374.09;;;1.75;100.00
53270;BME280;39159;45.634;9.420;2022-12-17T02:55:42;98368.97;;;1.69;100.00
53270;BME280;39159;45.634;9.420;2022-12-17T02:58:26;98374.03;;;1.60;100.00
53270;BME280;39159;45.634;9.420;2022-12-17T03:01:10;98370.00;;;1.52;100.00
53270;BME280;39159;45.634;9.420;2022-12-17T03:03:54;98376.41;;;1.41;100.00
53270;BME280;39159;45.634;9.420;2022-12-17T03:06:38;98378.00;;;1.37;100.00
53270;BME280;39159;45.634;9.420;2022-12-17T03:09:22;98379.34;;;1.39;100.00
53270;BME280;39159;45.634;9.420;2022-12-17T03:12:05;98383.06;;;1.33;100.00
53270;BME280;39159;45.634;9.420;2022-12-17T03:14:50;98381.22;;;1.34;100.00
53270;BME280;39159;45.634;9.420;2022-12-17T03:17:33;98386.28;;;1.25;100.00
53270;BME280;39159;45.634;9.420;2022-12-17T03:20:17;98388.91;;;1.15;100.00
53270;BME280;39159;45.634;9.420;2022-12-17T03:23:07;98392.38;;;1.15;100.00
53270;BME280;39159;45.634;9.420;2022-12-17T03:25:51;98392.91;;;1.12;100.00
53270;BME280;39159;45.634;9.420;2022-12-17T03:28:35;98388.81;;;0.99;100.00
53270;BME280;39159;45.634;9.420;2022-12-17T03:31:20;98391.25;;;1.06;100.00
53270;BME280;39159;45.634;9.420;2022-12-17T03:34:04;98395.53;;;1.02;100.00
53270;BME280;39159;45.634;9.420;2022-12-17T03:36:48;98397.63;;;0.95;100.00
53270;BME280;39159;45.634;9.420;2022-12-17T03:39:32;98403.25;;;0.88;100.00
53270;BME280;39159;45.634;9.420;2022-12-17T03:42:16;98395.19;;;0.88;100.00
53270;BME280;39159;45.634;9.420;2022-12-17T03:44:59;98399.97;;;0.81;100.00
53270;BME280;39159;45.634;9.420;2022-12-17T03:47:43;98409.06;;;0.80;100.00
53270;BME280;39159;45.634;9.420;2022-12-17T03:50:27;98405.34;;;0.81;100.00
53270;BME280;39159;45.634;9.420;2022-12-17T03:53:11;98419.31;;;0.83;100.00
53270;BME280;39159;45.634;9.420;2022-12-17T03:55:55;98425.47;;;0.78;100.00
53270;BME280;39159;45.634;9.420;2022-12-17T03:58:39;98428.66;;;0.75;100.00
53270;BME280;39159;45.634;9.420;2022-12-17T04:01:23;98432.09;;;0.71;100.00
53270;BME280;39159;45.634;9.420;2022-12-17T04:04:26;98421.31;;;0.60;100.00
53270;BME280;39159;45.634;9.420;2022-12-17T04:07:10;98449.78;;;0.67;100.00
53270;BME280;39159;45.634;9.420;2022-12-17T04:09:54;98443.91;;;0.65;100.00
53270;BME280;39159;45.634;9.420;2022-12-17T04:12:39;98436.88;;;0.64;100.00
53270;BME280;39159;45.634;9.420;2022-12-17T04:15:22;98435.84;;;0.65;100.00
53270;BME280;39159;45.634;9.420;2022-12-17T04:18:06;98436.63;;;0.65;100.00
53270;BME280;39159;45.634;9.420;2022-12-17T04:20:50;98441.16;;;0.59;100.00
53270;BME280;39159;45.634;9.420;2022-12-17T04:23:34;98442.78;;;0.60;100.00
53270;BME280;39159;45.634;9.420;2022-12-17T04:26:18;98447.59;;;0.58;100.00
53270;BME280;39159;45.634;9.420;2022-12-17T04:29:02;98444.91;;;0.58;100.00
53270;BME280;39159;45.634;9.420;2022-12-17T04:31:46;98449.19;;;0.59;100.00
53270;BME280;39159;45.634;9.420;2022-12-17T04:34:30;98436.19;;;0.46;100.00
53270;BME280;39159;45.634;9.420;2022-12-17T04:37:14;98458.91;;;0.60;100.00
53270;BME280;39159;45.634;9.420;2022-12-17T04:39:58;98469.06;;;0.58;100.00
53270;BME280;39159;45.634;9.420;2022-12-17T04:42:42;98472.53;;;0.54;100.00
53270;BME280;39159;45.634;9.420;2022-12-17T04:45:26;98470.03;;;0.47;100.00
53270;BME280;39159;45.634;9.420;2022-12-17T04:48:10;98471.81;;;0.36;100.00
53270;BME280;39159;45.634;9.420;2022-12-17T04:50:54;98471.63;;;0.43;100.00
53270;BME280;39159;45.634;9.420;2022-12-17T04:53:38;98472.72;;;0.47;100.00
53270;BME280;39159;45.634;9.420;2022-12-17T04:56:22;98474.66;;;0.52;100.00
53270;BME280;39159;45.634;9.420;2022-12-17T04:59:06;98477.34;;;0.52;100.00
53270;BME280;39159;45.634;9.420;2022-12-17T05:01:50;98494.97;;;0.43;100.00
53270;BME280;39159;45.634;9.420;2022-12-17T05:04:35;98493.28;;;0.36;100.00
53270;BME280;39159;45.634;9.420;2022-12-17T05:07:19;98505.16;;;0.40;100.00
53270;BME280;39159;45.634;9.420;2022-12-17T05:10:04;98503.16;;;0.31;100.00
53270;BME280;39159;45.634;9.420;2022-12-17T05:12:55;98518.97;;;0.27;100.00
53270;BME280;39159;45.634;9.420;2022-12-17T05:15:39;98514.72;;;0.31;100.00
53270;BME280;39159;45.634;9.420;2022-12-17T05:18:23;98518.13;;;0.27;100.00
53270;BME280;39159;45.634;9.420;2022-12-17T05:21:07;98520.47;;;0.18;100.00
53270;BME280;39159;45.634;9.420;2022-12-17T05:23:51;98524.72;;;0.14;100.00
53270;BME280;39159;45.634;9.420;2022-12-17T05:26:35;98529.31;;;0.18;100.00
53270;BME280;39159;45.634;9.420;2022-12-17T05:29:19;98526.94;;;0.22;100.00
53270;BME280;39159;45.634;9.420;2022-12-17T05:32:03;98524.25;;;0.22;100.00
53270;BME280;39159;45.634;9.420;2022-12-17T05:34:47;98532.06;;;0.24;100.00
53270;BME280;39159;45.634;9.420;2022-12-17T05:37:30;98536.66;;;0.28;100.00
53270;BME280;39159;45.634;9.420;2022-12-17T05:40:14;98538.38;;;0.12;100.00
53270;BME280;39159;45.634;9.420;2022-12-17T05:43:03;98529.81;;;0.15;100.00
53270;BME280;39159;45.634;9.420;2022-12-17T05:45:51;98529.94;;;0.26;100.00
53270;BME280;39159;45.634;9.420;2022-12-17T05:48:35;98546.03;;;0.48;100.00
53270;BME280;39159;45.634;9.420;2022-12-17T05:51:20;98540.91;;;0.46;100.00
53270;BME280;39159;45.634;9.420;2022-12-17T05:54:05;98550.31;;;0.49;100.00
53270;BME280;39159;45.634;9.420;2022-12-17T05:57:03;98559.41;;;0.43;100.00
53270;BME280;39159;45.634;9.420;2022-12-17T05:59:47;98557.56;;;0.48;100.00
53270;BME280;39159;45.634;9.420;2022-12-17T06:02:31;98568.91;;;0.55;100.00
53270;BME280;39159;45.634;9.420;2022-12-17T06:05:15;98568.91;;;0.55;100.00
53270;BME280;39159;45.634;9.420;2022-12-17T06:08:04;98569.19;;;0.54;100.00
53270;BME280;39159;45.634;9.420;2022-12-17T06:10:49;98568.06;;;0.50;100.00
53270;BME280;39159;45.634;9.420;2022-12-17T06:13:33;98576.13;;;0.50;100.00
53270;BME280;39159;45.634;9.420;2022-12-17T06:16:17;98581.97;;;0.47;100.00
53270;BME280;39159;45.634;9.420;2022-12-17T06:19:01;98577.88;;;0.39;100.00
53270;BME280;39159;45.634;9.420;2022-12-17T06:21:45;98580.78;;;0.37;100.00
53270;BME280;39159;45.634;9.420;2022-12-17T06:24:48;98575.75;;;0.41;100.00
53270;BME280;39159;45.634;9.420;2022-12-17T06:27:32;98585.91;;;0.39;100.00
53270;BME280;39159;45.634;9.420;2022-12-17T06:30:16;98588.78;;;0.54;100.00
53270;BME280;39159;45.634;9.420;2022-12-17T06:33:05;98586.41;;;0.58;100.00
53270;BME280;39159;45.634;9.420;2022-12-17T06:35:51;98587.09;;;0.48;100.00
53270;BME280;39159;45.634;9.420;2022-12-17T06:38:35;98601.31;;;0.49;100.00
53270;BME280;39159;45.634;9.420;2022-12-17T06:41:19;98591.91;;;0.46;100.00
53270;BME280;39159;45.634;9.420;2022-12-17T06:44:03;98605.41;;;0.51;100.00
53270;BME280;39159;45.634;9.420;2022-12-17T06:46:47;98601.31;;;0.49;100.00
53270;BME280;39159;45.634;9.420;2022-12-17T06:49:31;98616.00;;;0.41;100.00
53270;BME280;39159;45.634;9.420;2022-12-17T06:52:15;98622.63;;;0.33;100.00
53270;BME280;39159;45.634;9.420;2022-12-17T06:54:59;98631.56;;;0.39;100.00
53270;BME280;39159;45.634;9.420;2022-12-17T06:57:43;98631.31;;;0.40;100.00
53270;BME280;39159;45.634;9.420;2022-12-17T07:00:26;98639.03;;;0.37;100.00
53270;BME280;39159;45.634;9.420;2022-12-17T07:03:11;98646.59;;;0.40;100.00
53270;BME280;39159;45.634;9.420;2022-12-17T07:05:54;98651.91;;;0.35;100.00
53270;BME280;39159;45.634;9.420;2022-12-17T07:08:38;98659.94;;;0.35;100.00
53270;BME280;39159;45.634;9.420;2022-12-17T07:11:33;98658.91;;;0.36;100.00
53270;BME280;39159;45.634;9.420;2022-12-17T07:14:17;98657.84;;;0.37;100.00
53270;BME280;39159;45.634;9.420;2022-12-17T07:17:01;98663.81;;;0.44;100.00
53270;BME280;39159;45.634;9.420;2022-12-17T07:19:45;98674.38;;;0.51;100.00
53270;BME280;39159;45.634;9.420;2022-12-17T07:22:29;98670.13;;;0.55;100.00
53270;BME280;39159;45.634;9.420;2022-12-17T07:25:12;98685.22;;;0.56;100.00
53270;BME280;39159;45.634;9.420;2022-12-17T07:27:57;98679.44;;;0.47;100.00
53270;BME280;39159;45.634;9.420;2022-12-17T07:30:40;98694.44;;;0.43;100.00
53270;BME280;39159;45.634;9.420;2022-12-17T07:33:24;98696.88;;;0.45;100.00
53270;BME280;39159;45.634;9.420;2022-12-17T07:36:08;98697.34;;;0.41;100.00
53270;BME280;39159;45.634;9.420;2022-12-17T07:38:52;98713.59;;;0.52;100.00
53270;BME280;39159;45.634;9.420;2022-12-17T07:41:36;98713.28;;;0.48;100.00
53270;BME280;39159;45.634;9.420;2022-12-17T07:44:22;98714.78;;;0.39;100.00
53270;BME280;39159;45.634;9.420;2022-12-17T07:47:06;98720.66;;;0.36;100.00
53270;BME280;39159;45.634;9.420;2022-12-17T07:49:50;98724.19;;;0.41;100.00
53270;BME280;39159;45.634;9.420;2022-12-17T07:52:34;98732.81;;;0.44;100.00
53270;BME280;39159;45.634;9.420;2022-12-17T07:55:18;98738.19;;;0.44;100.00
53270;BME280;39159;45.634;9.420;2022-12-17T07:58:05;98741.78;;;0.49;100.00
53270;BME280;39159;45.634;9.420;2022-12-17T08:00:49;98761.13;;;0.51;100.00
53270;BME280;39159;45.634;9.420;2022-12-17T08:03:33;98750.91;;;0.70;100.00
53270;BME280;39159;45.634;9.420;2022-12-17T08:06:17;98755.47;;;0.70;100.00
53270;BME280;39159;45.634;9.420;2022-12-17T08:09:18;98759.69;;;0.82;100.00
53270;BME280;39159;45.634;9.420;2022-12-17T08:12:02;98774.50;;;1.07;100.00
53270;BME280;39159;45.634;9.420;2022-12-17T08:14:46;98777.97;;;1.08;100.00
53270;BME280;39159;45.634;9.420;2022-12-17T08:17:30;98771.91;;;0.95;100.00
53270;BME280;39159;45.634;9.420;2022-12-17T08:20:14;98776.84;;;0.81;100.00
53270;BME280;39159;45.634;9.420;2022-12-17T08:23:04;98779.22;;;0.78;100.00
53270;BME280;39159;45.634;9.420;2022-12-17T08:25:48;98789.88;;;0.73;100.00
53270;BME280;39159;45.634;9.420;2022-12-17T08:28:32;98796.22;;;0.67;100.00
53270;BME280;39159;45.634;9.420;2022-12-17T08:31:16;98806.44;;;0.65;100.00
53270;BME280;39159;45.634;9.420;2022-12-17T08:34:00;98817.25;;;0.70;100.00
53270;BME280;39159;45.634;9.420;2022-12-17T08:36:44;98820.63;;;0.82;100.00
53270;BME280;39159;45.634;9.420;2022-12-17T08:39:28;98819.97;;;0.92;100.00
53270;BME280;39159;45.634;9.420;2022-12-17T08:42:12;98822.22;;;1.00;100.00
53270;BME280;39159;45.634;9.420;2022-12-17T08:44:56;98827.59;;;1.00;100.00
53270;BME280;39159;45.634;9.420;2022-12-17T08:47:40;98828.91;;;0.97;100.00
53270;BME280;39159;45.634;9.420;2022-12-17T08:50:24;98827.59;;;1.00;100.00
53270;BME280;39159;45.634;9.420;2022-12-17T08:53:07;98836.31;;;1.07;100.00
53270;BME280;39159;45.634;9.420;2022-12-17T08:55:51;98839.28;;;1.11;100.00
53270;BME280;39159;45.634;9.420;2022-12-17T08:58:35;98854.78;;;1.03;100.00
53270;BME280;39159;45.634;9.420;2022-12-17T09:01:19;98850.03;;;1.11;100.00
53270;BME280;39159;45.634;9.420;2022-12-17T09:04:03;98861.88;;;1.10;100.00
53270;BME280;39159;45.634;9.420;2022-12-17T09:06:47;98864.94;;;1.18;100.00
53270;BME280;39159;45.634;9.420;2022-12-17T09:09:31;98867.88;;;1.17;100.00
53270;BME280;39159;45.634;9.420;2022-12-17T09:12:15;98864.50;;;1.27;100.00
53270;BME280;39159;45.634;9.420;2022-12-17T09:14:59;98874.75;;;1.30;100.00
53270;BME280;39159;45.634;9.420;2022-12-17T09:17:43;98880.25;;;1.40;100.00
53270;BME280;39159;45.634;9.420;2022-12-17T09:20:27;98886.53;;;1.45;100.00
53270;BME280;39159;45.634;9.420;2022-12-17T09:23:14;98896.72;;;1.43;100.00
53270;BME280;39159;45.634;9.420;2022-12-17T09:25:59;98892.53;;;1.53;100.00
53270;BME280;39159;45.634;9.420;2022-12-17T09:28:43;98903.72;;;1.44;100.00
53270;BME280;39159;45.634;9.420;2022-12-17T09:31:27;98907.53;;;1.49;100.00
53270;BME280;39159;45.634;9.420;2022-12-17T09:34:11;98909.16;;;1.50;100.00
53270;BME280;39159;45.634;9.420;2022-12-17T09:36:55;98912.16;;;1.53;100.00
53270;BME280;39159;45.634;9.420;2022-12-17T09:39:39;98916.06;;;1.62;100.00
53270;BME280;39159;45.634;9.420;2022-12-17T09:42:28;98921.72;;;1.66;100.00
53270;BME280;39159;45.634;9.420;2022-12-17T09:48:58;98920.69;;;1.67;100.00
53270;BME280;39159;45.634;9.420;2022-12-17T09:51:43;98926.19;;;1.77;100.00
53270;BME280;39159;45.634;9.420;2022-12-17T09:57:18;98933.06;;;1.90;100.00
53270;BME280;39159;45.634;9.420;2022-12-17T10:00:25;98942.41;;;1.82;100.00
53270;BME280;39159;45.634;9.420;2022-12-17T10:03:16;98938.63;;;1.83;100.00
53270;BME280;39159;45.634;9.420;2022-12-17T10:06:10;98935.38;;;1.81;100.00
53270;BME280;39159;45.634;9.420;2022-12-17T10:08:58;98956.38;;;1.84;100.00
53270;BME280;39159;45.634;9.420;2022-12-17T10:11:43;98948.88;;;1.86;100.00
53270;BME280;39159;45.634;9.420;2022-12-17T10:14:27;98953.06;;;1.99;100.00
53270;BME280;39159;45.634;9.420;2022-12-17T10:17:21;98963.22;;;2.14;100.00
53270;BME280;39159;45.634;9.420;2022-12-17T10:20:22;98969.91;;;2.12;100.00
53270;BME280;39159;45.634;9.420;2022-12-17T10:23:07;98973.75;;;2.16;100.00
53270;BME280;39159;45.634;9.420;2022-12-17T10:25:55;98972.22;;;2.25;100.00
53270;BME280;39159;45.634;9.420;2022-12-17T10:28:40;98985.78;;;2.35;100.00
53270;BME280;39159;45.634;9.420;2022-12-17T10:31:28;98992.91;;;2.46;100.00
53270;BME280;39159;45.634;9.420;2022-12-17T10:34:18;98998.16;;;2.58;100.00
53270;BME280;39159;45.634;9.420;2022-12-17T10:37:03;98989.78;;;2.60;100.00
53270;BME280;39159;45.634;9.420;2022-12-17T10:39:55;98985.72;;;2.57;100.00
53270;BME280;39159;45.634;9.420;2022-12-17T10:42:45;98992.28;;;2.66;100.00
53270;BME280;39159;45.634;9.420;2022-12-17T10:45:35;98996.22;;;2.81;100.00
53270;BME280;39159;45.634;9.420;2022-12-17T10:48:23;98989.44;;;2.78;100.00
53270;BME280;39159;45.634;9.420;2022-12-17T10:51:31;98996.50;;;2.57;100.00
53270;BME280;39159;45.634;9.420;2022-12-17T10:57:06;99005.19;;;2.92;100.00
53270;BME280;39159;45.634;9.420;2022-12-17T10:59:50;99004.47;;;3.01;100.00
53270;BME280;39159;45.634;9.420;2022-12-17T11:02:35;99003.91;;;2.99;100.00
53270;BME280;39159;45.634;9.420;2022-12-17T11:05:26;99008.28;;;3.05;100.00
53270;BME280;39159;45.634;9.420;2022-12-17T11:08:13;98997.06;;;3.19;100.00
53270;BME280;39159;45.634;9.420;2022-12-17T11:11:01;98989.16;;;3.07;100.00
53270;BME280;39159;45.634;9.420;2022-12-17T11:13:48;98992.47;;;3.19;100.00
53270;BME280;39159;45.634;9.420;2022-12-17T11:16:47;98990.34;;;3.26;100.00
53270;BME280;39159;45.634;9.420;2022-12-17T11:19:54;98992.31;;;3.36;100.00
53270;BME280;39159;45.634;9.420;2022-12-17T11:25:37;99003.38;;;3.35;100.00
53270;BME280;39159;45.634;9.420;2022-12-17T11:28:26;99009.22;;;3.26;100.00
53270;BME280;39159;45.634;9.420;2022-12-17T11:37:06;99009.00;;;3.70;100.00
53270;BME280;39159;45.634;9.420;2022-12-17T11:43:02;99011.69;;;3.76;100.00
53270;BME280;39159;45.634;9.420;2022-12-17T11:52:28;99012.16;;;4.05;100.00
53270;BME280;39159;45.634;9.420;2022-12-17T11:58:33;99014.88;;;4.15;100.00
53270;BME280;39159;45.634;9.420;2022-12-17T12:10:39;99002.81;;;4.43;100.00
53270;BME280;39159;45.634;9.420;2022-12-17T12:13:43;99011.78;;;4.54;100.00
53270;BME280;39159;45.634;9.420;2022-12-17T12:19:43;99017.75;;;4.71;100.00
53270;BME280;39159;45.634;9.420;2022-12-17T12:22:33;99020.16;;;4.73;100.00
53270;BME280;39159;45.634;9.420;2022-12-17T12:25:28;99015.06;;;4.76;100.00
53270;BME280;39159;45.634;9.420;2022-12-17T12:34:13;99009.56;;;5.84;100.00
53270;BME280;39159;45.634;9.420;2022-12-17T12:37:01;99012.47;;;6.13;100.00
53270;BME280;39159;45.634;9.420;2022-12-17T12:39:55;99010.34;;;6.60;100.00
53270;BME280;39159;45.634;9.420;2022-12-17T12:42:51;99023.31;;;6.68;100.00
53270;BME280;39159;45.634;9.420;2022-12-17T12:45:48;99021.69;;;7.06;100.00
53270;BME280;39159;45.634;9.420;2022-12-17T12:51:33;99028.06;;;7.60;100.00
53270;BME280;39159;45.634;9.420;2022-12-17T12:57:04;99022.13;;;8.06;100.00
53270;BME280;39159;45.634;9.420;2022-12-17T12:59:48;99025.81;;;8.16;100.00
53270;BME280;39159;45.634;9.420;2022-12-17T13:02:33;99021.75;;;8.37;100.00
53270;BME280;39159;45.634;9.420;2022-12-17T13:08:18;99028.34;;;8.31;100.00
53270;BME280;39159;45.634;9.420;2022-12-17T13:10:44;99033.97;;;8.16;100.00
53270;BME280;39159;45.634;9.420;2022-12-17T13:13:33;99034.38;;;7.80;100.00
53270;BME280;39159;45.634;9.420;2022-12-17T13:17:18;99046.16;;;7.70;100.00
53270;BME280;39159;45.634;9.420;2022-12-17T13:19:35;99048.56;;;7.42;100.00
53270;BME280;39159;45.634;9.420;2022-12-17T13:24:42;99056.00;;;6.42;100.00
53270;BME280;39159;45.634;9.420;2022-12-17T13:29:52;99070.28;;;5.63;100.00
53270;BME280;39159;45.634;9.420;2022-12-17T13:32:31;99068.66;;;5.36;100.00
53270;BME280;39159;45.634;9.420;2022-12-17T13:35:22;99074.34;;;5.34;100.00
53270;BME280;39159;45.634;9.420;2022-12-17T13:38:19;99079.47;;;5.31;100.00
53270;BME280;39159;45.634;9.420;2022-12-17T13:41:11;99093.81;;;5.31;100.00
53270;BME280;39159;45.634;9.420;2022-12-17T13:46:42;99107.34;;;5.16;100.00
53270;BME280;39159;45.634;9.420;2022-12-17T13:49:20;99114.63;;;5.15;100.00
53270;BME280;39159;45.634;9.420;2022-12-17T13:51:46;99121.38;;;5.13;100.00
53270;BME280;39159;45.634;9.420;2022-12-17T13:54:17;99129.75;;;4.96;100.00
53270;BME280;39159;45.634;9.420;2022-12-17T13:56:43;99132.91;;;4.77;100.00
53270;BME280;39159;45.634;9.420;2022-12-17T13:59:20;99138.31;;;4.77;100.00
53270;BME280;39159;45.634;9.420;2022-12-17T14:01:48;99146.19;;;4.74;100.00
53270;BME280;39159;45.634;9.420;2022-12-17T14:04:25;99151.78;;;4.57;100.00
53270;BME280;39159;45.634;9.420;2022-12-17T14:06:57;99159.25;;;4.40;100.00
53270;BME280;39159;45.634;9.420;2022-12-17T14:09:29;99154.88;;;4.28;100.00
53270;BME280;39159;45.634;9.420;2022-12-17T14:11:56;99161.06;;;4.24;100.00
53270;BME280;39159;45.634;9.420;2022-12-17T14:14:46;99167.34;;;4.34;100.00
53270;BME280;39159;45.634;9.420;2022-12-17T14:17:21;99171.63;;;4.30;100.00
53270;BME280;39159;45.634;9.420;2022-12-17T14:19:55;99171.78;;;4.13;100.00
53270;BME280;39159;45.634;9.420;2022-12-17T14:22:49;99182.00;;;4.06;100.00
53270;BME280;39159;45.634;9.420;2022-12-17T14:25:19;99182.56;;;4.08;100.00
53270;BME280;39159;45.634;9.420;2022-12-17T14:30:39;99183.38;;;4.09;100.00
53270;BME280;39159;45.634;9.420;2022-12-17T14:33:27;99190.91;;;4.07;100.00
53270;BME280;39159;45.634;9.420;2022-12-17T14:35:54;99200.88;;;4.01;100.00
53270;BME280;39159;45.634;9.420;2022-12-17T14:38:23;99196.28;;;4.02;100.00
53270;BME280;39159;45.634;9.420;2022-12-17T14:40:48;99199.78;;;4.02;100.00
53270;BME280;39159;45.634;9.420;2022-12-17T14:43:14;99212.44;;;3.91;100.00
53270;BME280;39159;45.634;9.420;2022-12-17T14:45:49;99222.09;;;3.87;100.00
53270;BME280;39159;45.634;9.420;2022-12-17T14:48:34;99225.38;;;3.89;100.00
53270;BME280;39159;45.634;9.420;2022-12-17T14:51:23;99233.72;;;3.88;100.00
53270;BME280;39159;45.634;9.420;2022-12-17T14:53:51;99238.09;;;3.94;100.00
53270;BME280;39159;45.634;9.420;2022-12-17T14:56:22;99244.84;;;3.97;100.00
53270;BME280;39159;45.634;9.420;2022-12-17T14:58:47;99251.06;;;3.97;100.00
53270;BME280;39159;45.634;9.420;2022-12-17T15:01:13;99257.59;;;4.01;100.00
53270;BME280;39159;45.634;9.420;2022-12-17T15:03:42;99268.16;;;4.03;100.00
53270;BME280;39159;45.634;9.420;2022-12-17T15:06:12;99270.63;;;4.09;100.00
53270;BME280;39159;45.634;9.420;2022-12-17T15:08:45;99282.81;;;4.12;100.00
53270;BME280;39159;45.634;9.420;2022-12-17T15:11:13;99287.41;;;4.11;100.00
53270;BME280;39159;45.634;9.420;2022-12-17T15:13:39;99287.41;;;4.11;100.00
53270;BME280;39159;45.634;9.420;2022-12-17T15:16:06;99288.75;;;4.14;100.00
53270;BME280;39159;45.634;9.420;2022-12-17T15:18:31;99296.59;;;4.15;100.00
53270;BME280;39159;45.634;9.420;2022-12-17T15:20:57;99292.25;;;4.09;100.00
53270;BME280;39159;45.634;9.420;2022-12-17T15:23:23;99301.16;;;4.10;100.00
53270;BME280;39159;45.634;9.420;2022-12-17T15:25:50;99303.28;;;4.08;100.00
53270;BME280;39159;45.634;9.420;2022-12-17T15:28:17;99310.06;;;4.10;100.00
53270;BME280;39159;45.634;9.420;2022-12-17T15:30:43;99306.84;;;4.13;100.00
53270;BME280;39159;45.634;9.420;2022-12-17T15:33:09;99321.75;;;4.16;100.00
53270;BME280;39159;45.634;9.420;2022-12-17T15:35:35;99322.28;;;4.18;100.00
53270;BME280;39159;45.634;9.420;2022-12-17T15:38:02;99320.41;;;4.19;100.00
53270;BME280;39159;45.634;9.420;2022-12-17T15:40:27;99328.75;;;4.17;100.00
53270;BME280;39159;45.634;9.420;2022-12-17T15:42:53;99329.84;;;4.16;100.00
53270;BME280;39159;45.634;9.420;2022-12-17T15:45:44;99335.72;;;4.13;100.00
53270;BME280;39159;45.634;9.420;2022-12-17T15:48:11;99335.44;;;4.09;100.00
53270;BME280;39159;45.634;9.420;2022-12-17T15:50:38;99340.56;;;4.11;100.00
53270;BME280;39159;45.634;9.420;2022-12-17T15:53:04;99348.13;;;4.09;100.00